Tiempo atmosférico en la estación meteorológica de Puerto Alto del León, Madrid (1532 m.)



Fecha
DESCASC
Temp. máxima en grados centígrados (hora)
DESCASC
Temp. mínima en grados centígrados (hora)
DESCASC
Temp. media en grados centígrados
DESCASC
Racha de viento máxima en m/sg (hora)
DESCASC
Velocidad máxima media en intervalos de 10 minutos(hora)
DESCASC
Precipitaciones diarias en mm
DESCASC
Precipitaciones de 00:00 a 06:00 en mm
DESCASC
Precipitaciones de 06:00 a 12:00 en mm
DESCASC
Precipitaciones de 12:00 a 18:00 en mm
DESCASC
Precipitaciones de 18:00 a 24:00 en mm
DESCASC
05-04-2020 10.3 (18:10) 3.1 (10:20) 6.7 13.06 (00:10) 7.5 (12:20) 0.1 0 0 0 0.1
04-04-2020 9.9 (15:00) 1.5 (07:10) 5.7 16.11 (15:40) 9.44 (13:30) 0 0 0 0 0
03-04-2020 10.6 (18:10) -1.8 (08:20) 4.4 9.72 (05:20) 6.94 (05:10) 0 0 0 0 0
02-04-2020 5.8 (15:30) -0.8 (-00:0) 2.5 8.89 (22:10) 6.11 (23:00) 0 0 0 0 0
01-04-2020 6.8 (18:10) -0.3 (00:00) 3.3 9.17 (01:40) 5.28 (01:40) 17.2 8.1 7.7 1.4 0
31-03-2020 2 (22:40) -4.5 (-00:0) -1.3 13.33 (21:30) 6.94 (21:30) 36.7 1.9 9.7 13.5 11.6
30-03-2020 3.3 (00:00) -4.2 (-00:0) -0.4 16.11 (11:00) 10 (06:10) 3.8 0 0 0.8 3
29-03-2020 12 (18:20) 0.9 (00:00) 6.4 9.72 (18:10) 5.83 (15:00) 0 0 0 0 0
28-03-2020 8.8 (15:40) -2 (-00:0) 3.4 11.11 (09:20) 6.94 (09:50) 0 0 0 0 0
27-03-2020 3.9 (14:20) -3.8 (-00:0) 0.1 12.5 (13:20) 7.22 (13:30) 0 0 0 0 0
26-03-2020 6.5 (16:20) -2.6 (-00:0) 2 18.06 (05:20) 11.67 (05:10) 0 0 0 0 0
25-03-2020 10.1 (15:40) 0.5 (00:00) 5.3 13.33 (16:30) 8.61 (16:50) 0 0 0 0 0
24-03-2020 7.7 (17:30) 1.9 (00:00) 4.8 13.89 (12:10) 7.5 (12:00) 0.1 0 0.1 0 0
23-03-2020 5.5 (17:20) 1.2 (00:00) 3.4 12.22 (11:40) 6.94 (20:00) 5.7 1.2 0.4 4 0.1
22-03-2020 4.3 (19:20) 0.1 (07:40) 2.2 7.78 (22:50) 4.17 (15:10) 3 1.5 0.1 0.9 0.5
21-03-2020 3 (14:40) 0.2 (00:00) 1.6 13.89 (03:10) 7.22 (04:00) 7.9 0 2.3 5.3 0.3
20-03-2020 3.7 (00:10) 2 (00:00) 2.9 11.67 (19:50) 7.22 (13:30) 3.4 2 1.4 0 0
19-03-2020 9.4 (14:50) 2.9 (00:00) 6.1 11.11 (23:40) 7.22 (23:50) 0 0 0 0 0
18-03-2020 11 (15:50) 3.7 (00:00) 7.4 9.17 (12:40) 5.83 (11:20) 0 0 0 0 0
17-03-2020 5.6 (16:40) -1.7 (-00:0) 1.9 15.83 (09:40) 9.17 (12:10) 4.5 2.4 2.1 0 0
16-03-2020 0.4 (00:00) -3.7 (-00:0) -1.7 13.06 (01:50) 8.89 (00:20) 26.9 0.2 10 11.3 5.4
15-03-2020 13.5 (14:50) 0.4 (00:00) 7 15.83 (19:10) 9.72 (23:59) 0.7 0 0 0 0.7
14-03-2020 14.1 (15:50) 1.4 (00:00) 7.8 13.06 (06:40) 6.39 (00:40) 0 0 0 0 0
13-03-2020 14.1 (12:40) 4.4 (23:59) 9.3 8.61 (19:20) 5.83 (19:30) 0 0 0 0 0
12-03-2020 17.3 (13:50) 9.5 (00:00) 13.4 6.94 (15:10) 4.17 (22:40) 0 0 0 0 0
11-03-2020 18.8 (13:00) 8.3 (00:00) 13.5 10.28 (01:50) 7.5 (01:30) 0 0 0 0 0
10-03-2020 17.2 (16:00) 1.8 (00:00) 9.5 12.5 (01:00) 9.44 (01:10) 0 0 0 0 0
09-03-2020 7.2 (16:50) -0.8 (-00:0) 3.2 25.83 (04:30) 16.67 (05:00) 0 0 0 0 0
08-03-2020 8.2 (15:20) -0.7 (-00:0) 3.7 18.61 (23:40) 12.78 (23:40) 0 0 0 0 0

Gráficas

Temp. máximas Temp. mínimas Temp. medias Precipitaciones Rachas de viento máximas Velocidades máximas media en intervalos de 10 minutos

Datos horarios

Fecha y hora oficial Temperatura (ºC) Velocidad del viento (km/h) Dirección del viento Racha (km/h) Dirección de racha Precipitación (mm) Presión (hPa) Tendencia (hPa) Humedad (%)
2020-04-06 23:00:00 6.6 9 Sudeste 15 Este 0 852.4 1.4 70
2020-04-06 22:00:00 6.5 9 Sudeste 18 Este 0 852 0.9 70
2020-04-06 21:00:00 6.7 8 Sudeste 20 Sudeste 0 851.4 0.6 68
2020-04-06 20:00:00 7.3 3 Sur 20 Noroeste 0 851 0.1 64
2020-04-06 19:00:00 6.9 12 Noroeste 41 Oeste 0.3 851.1 0 67
2020-04-06 18:00:00 7.9 16 Oeste 36 Sudoeste 0 850.8 -0.4 46
2020-04-06 17:00:00 9.6 9 Sudeste 22 Este 0 850.9 0.1 49
2020-04-06 16:00:00 9 9 Este 24 Este 0 851.1 0.4 53
2020-04-06 15:00:00 10.7 8 Este 31 Sudoeste 0 851.2 0.6 53
2020-04-06 14:00:00 9.1 14 Sur 32 Sudoeste 0 850.8 0.7 48
2020-04-06 13:00:00 9 4 Este 23 Este 0 850.7 1.3 70
2020-04-06 12:00:00 7.9 5 Este 22 Sudeste 0 850.6 1.7 80
2020-04-06 11:00:00 7.1 5 Este 29 Este 0 850.1 1.7 80
2020-04-06 10:00:00 6.4 14 Sudeste 32 Este 0 849.4 1.5 80
2020-04-06 09:00:00 7 10 Sudeste 21 Este 0.3 848.9 1.3 81
2020-04-06 08:00:00 6.9 8 Este 18 Este 0.8 848.4 0.9 80
2020-04-06 07:00:00 6.8 9 Este 18 Este 0.2 847.9 0.5 80
2020-04-06 06:00:00 6.8 10 Este 23 Este 0.8 847.6 -0.2 80
2020-04-06 05:00:00 6.8 8 Este 30 Este 0 847.5 -0.5 80
2020-04-06 04:00:00 6.9 9 Este 30 Sudeste 0.3 847.4 -0.7 80
2020-04-06 03:00:00 7 6 Sudeste 28 Sudeste 0 847.8 -0.2 80
2020-04-06 02:00:00 6.8 4 Sudeste 16 Sudeste 0.1 848 0.3 81
2020-04-06 01:00:00 6.9 4 Sudeste 20 Este 0.2 848.1 0.7 77
2020-04-06 00:00:00 7.1 6 Sudeste 40 Este 0 848 1.1 69
2020-04-05 23:00:00 7.6 13 Sudeste 38 Este 0.1 847.7 1.4 63
2020-04-05 22:00:00 7.5 13 Este 25 Sudeste 0 847.4 0.8 63
2020-04-05 21:00:00 7.9 15 Este 31 Este 0 846.9 0.3 60
2020-04-05 20:00:00 8.5 17 Sudeste 34 Sudeste 0 846.3 -0.4 57
2020-04-05 19:00:00 9 18 Este 35 Sudeste 0 846.6 -0.2 55
2020-04-05 18:00:00 10.2 18 Sudeste 40 Este 0 846.6 -0.4 52
2020-04-05 17:00:00 9.4 20 Sudeste 40 Sudeste 0 846.7 -0.6 51
2020-04-05 16:00:00 8.9 23 Sudeste 42 Este 0 846.8 -1 49
2020-04-05 15:00:00 7.9 24 Este 45 Sudeste 0 847 -0.5 53
2020-04-05 14:00:00 6.9 25 Sudeste 46 Sudeste 0 847.3 -0.2 58
2020-04-05 13:00:00 4.9 23 Sudeste 43 Sudeste 0 847.8 0.7 81
2020-04-05 12:00:00 4.1 25 Este 38 Este 0 847.5 0.8 81
2020-04-05 11:00:00 3.8 22 Sudeste 39 Sudeste 0 847.5 0.9 81
2020-04-05 10:00:00 3.2 21 Sudeste 35 Sudeste 0 847.1 1 81
2020-04-05 09:00:00 3.2 22 Sudeste 37 Sudeste 0 846.7 0.9 81
2020-04-05 08:00:00 3.3 20 Este 33 Sudeste 0 846.6 0.7 81
2020-04-05 07:00:00 3.3 20 Este 30 Sudeste 0 846.1 0.2 81
2020-04-05 06:00:00 3.3 15 Sudeste 28 Sudeste 0 845.8 -0.1 81
2020-04-05 05:00:00 3.4 15 Este 31 Sudeste 0 845.9 0.2 81
2020-04-05 04:00:00 3.5 18 Sudeste 32 Este 0 845.9 0.1 81
2020-04-05 03:00:00 3.6 18 Sudeste 39 Este 0 845.9 0.4 78
2020-04-05 02:00:00 3.8 22 Este 36 Este 0 845.7 0.3 76
2020-04-05 01:00:00 4.2 21 Sudeste 47 Sudeste 0 845.8 0.4 71
2020-04-05 00:00:00 4.6 26 Sudeste 46 Este 0 845.5 0.1 66
2020-04-04 23:00:00 5.3 26 Sudeste 45 Sudeste 0 845.4 0.3 59
2020-04-04 22:00:00 5.8 25 Sudeste 45 Sudeste 0 845.4 0.2 53
2020-04-04 21:00:00 6.7 17 Sudeste 40 Este 0 845.4 0.6 48
2020-04-04 20:00:00 7.3 17 Este 33 Este 0 845.1 1 45
2020-04-04 19:00:00 7.7 18 Sudeste 44 Sudeste 0 845.2 0.7 41
2020-04-04 18:00:00 7.8 22 Sudeste 48 Este 0 844.8 0.2 39
2020-04-04 17:00:00 8.5 29 Este 58 Sudeste 0 844.1 -1.1 37
2020-04-04 16:00:00 9.1 27 Sudeste 58 Sudeste 0 844.5 -1.2 38
2020-04-04 15:00:00 8.2 31 Sudeste 56 Sudeste 0 844.6 -1.1 40
2020-04-04 14:00:00 8.2 30 Este 55 Este 0 845.2 -0.6 38
2020-04-04 13:00:00 7.3 28 Sudeste 56 Este 0 845.7 0.2 42
2020-04-04 12:00:00 7 30 Sudeste 50 Sudeste 0 845.7 0.4 49
2020-04-04 11:00:00 4.5 26 Sudeste 44 Sudeste 0 845.8 0.8 58
2020-04-04 10:00:00 3.5 24 Este 37 Este 0 845.5 0.5 53
2020-04-04 09:00:00 2.8 22 Este 38 Este 0 845.3 0.3 51
2020-04-04 08:00:00 2 24 Sudeste 39 Este 0 845 -0.1 51
2020-04-04 07:00:00 1.7 20 Este 32 Este 0 845 -0.6 50
2020-04-04 06:00:00 2.1 21 Este 34 Sudeste 0 845 -1.1 49
2020-04-04 05:00:00 2.3 22 Sudeste 33 Sudeste 0 845.1 -1.5 47
2020-04-04 04:00:00 3 17 Este 26 Este 0 845.6 -1.1 46
2020-04-04 03:00:00 3.2 12 Sudeste 18 Sudeste 0 846.1 -0.7 46
2020-04-04 02:00:00 3.3 10 Este 17 Sudeste 0 846.6 -0.2 47
2020-04-04 01:00:00 3.7 12 Este 18 Este 0 846.7 0.4 48
2020-04-04 00:00:00 3.8 9 Este 12 Sudeste 0 846.8 0.9 48
2020-04-03 23:00:00 4.1 8 Este 11 Este 0 846.8 1.1 49
2020-04-03 22:00:00 4.8 6 Este 9 Este 0 846.3 0.7 45
2020-04-03 21:00:00 6 8 Sur 13 Este 0 845.9 0.5 43
2020-04-03 20:00:00 7.9 7 Sur 14 Sudoeste 0 845.7 0 38
2020-04-03 19:00:00 9.6 6 Sur 18 Sudeste 0 845.6 -0.5 35
2020-04-03 18:00:00 9.8 4 Sudeste 15 Noroeste 0 845.4 -1 33
2020-04-03 17:00:00 9.6 6 Noroeste 21 Oeste 0 845.7 -0.8 32
2020-04-03 16:00:00 7.1 8 Noroeste 24 Noroeste 0 846.1 -0.5 36
2020-04-03 15:00:00 7.2 15 Noroeste 27 Noroeste 0 846.4 -0.4 37
2020-04-03 14:00:00 6.3 13 Oeste 29 Oeste 0 846.5 0.1 38
2020-04-03 13:00:00 5.3 14 Oeste 26 Noroeste 0 846.6 0.5 39
2020-04-03 12:00:00 4.6 15 Oeste 24 Noroeste 0 846.8 1.1 40
2020-04-03 11:00:00 2.5 15 Noroeste 27 Oeste 0 846.4 1.4 50
2020-04-03 10:00:00 0.2 17 Noroeste 26 Noroeste 0 846.1 1.3 68
2020-04-03 09:00:00 -0.6 15 Noroeste 25 Oeste 0 845.7 1.2 77
2020-04-03 08:00:00 -1.4 0 Calma -- -- 0 845 0.6 81
2020-04-03 07:00:00 -1.6 0 Calma -- -- 0 844.8 0.4 81
2020-04-03 06:00:00 -0.9 8 Oeste 35 Oeste 0 844.5 -0.4 81
2020-04-03 05:00:00 -0.3 23 Oeste 33 Noroeste 0 844.4 -1 81
2020-04-03 04:00:00 0 22 Noroeste 31 Oeste 0 844.4 -0.9 81
2020-04-03 03:00:00 0.6 18 Oeste 28 Oeste 0 844.9 -0.6 81
2020-04-03 02:00:00 0.9 18 Noroeste 26 Noroeste 0 845.4 0.3 82
2020-04-03 01:00:00 1.2 14 Oeste 21 Noroeste 0 845.3 0.7 82
2020-04-03 00:00:00 1.4 14 Noroeste 28 Oeste 0 845.5 1.5 82
2020-04-02 23:00:00 1.8 22 Oeste 32 Noroeste 0 845.1 1.3 82
2020-04-02 22:00:00 2.1 17 Noroeste 28 Noroeste 0 844.6 1.4 80
2020-04-02 21:00:00 2.3 11 Noroeste 28 Oeste 0 844 1.1 81
2020-04-02 20:00:00 2.6 16 Noroeste 30 Oeste 0 843.8 1.1 75
2020-04-02 19:00:00 3.1 15 Noroeste 32 Norte 0 843.2 0.6 69
2020-04-02 18:00:00 4.8 10 Noroeste 22 Noroeste 0 842.9 0.1 63
2020-04-02 17:00:00 3.6 10 Noroeste 27 Oeste 0 842.7 0.1 73
2020-04-02 16:00:00 4.8 15 Noroeste 26 Oeste 0 842.6 0 57
2020-04-02 15:00:00 3.9 16 Noroeste 26 Oeste 0 842.8 0.4 63
2020-04-02 14:00:00 3.6 16 Oeste 29 Oeste 0 842.6 0.6 60
2020-04-02 13:00:00 3.8 18 Noroeste 28 Noroeste 0 842.6 1.1 57
2020-04-02 12:00:00 3.7 10 Noroeste 21 Noroeste 0 842.4 1.4 57
2020-04-02 11:00:00 2.2 13 Oeste 26 Noroeste 0 842 1.2 63
2020-04-02 10:00:00 0.5 8 Noroeste 15 Oeste 0 841.5 0.9 77
2020-04-02 09:00:00 -0.5 8 Noroeste 10 Noroeste 0 841 0.6 79
2020-04-02 08:00:00 -0.5 6 Oeste 13 Oeste 0 840.8 0.4 79
2020-04-02 07:00:00 -0.5 8 Oeste 11 Oeste 0 840.6 -0.3 76
2020-04-02 06:00:00 0.1 0 Calma 7 Sudeste 0 840.4 -1 53
2020-04-02 05:00:00 0 0 Calma -- -- 0 840.4 -1.1 58
2020-04-02 04:00:00 0 0 Calma 8 Oeste 0 840.9 -0.9 77
2020-04-02 03:00:00 0 7 Oeste 10 Oeste 0 841.4 -0.4 74
2020-04-02 02:00:00 0 8 Oeste 12 Noroeste 0 841.5 -0.2 67
2020-04-02 01:00:00 -0.2 10 Oeste 15 Noroeste 0 841.8 0.2 62
2020-04-02 00:00:00 -0.1 10 Oeste 14 Oeste 0 841.8 0.7 57
2020-04-01 23:00:00 1 0 Calma 10 Sudoeste 0 841.7 0.8 50
2020-04-01 22:00:00 1.7 5 Sudoeste 11 Sur 0 841.6 0.9 47
2020-04-01 21:00:00 2 5 Sur 12 Sudeste 0 841.1 0.1 49
2020-04-01 20:00:00 4.3 4 Sudeste 16 Sudoeste 0 840.9 0 42
2020-04-01 19:00:00 4.5 5 Sudeste 16 Oeste 0 840.7 -0.4 44
2020-04-01 18:00:00 6.1 7 Sur 22 Sudeste 0 841 -0.2 40
2020-04-01 17:00:00 4.7 4 Este 16 Este 0 840.9 -0.5 66
2020-04-01 16:00:00 2 4 Este 14 Este 0 841.1 -0.3 82
2020-04-01 15:00:00 2.1 6 Este 14 Este 0 841.2 -0.2 82
2020-04-01 14:00:00 1.6 9 Este 18 Este 0 841.4 0.1 82
2020-04-01 13:00:00 2.1 3 Este 24 Sudoeste 1.4 841.4 0.7 82
2020-04-01 12:00:00 0.3 7 Sudoeste 17 Este 2 841.4 0.8 82
2020-04-01 11:00:00 1.5 8 Sudeste 21 Este 0.8 841.3 1.3 82
2020-04-01 10:00:00 1.6 9 Este 17 Este 0.7 840.7 1 82
2020-04-01 09:00:00 1.3 11 Este 21 Este 2.9 840.6 0.9 82
2020-04-01 08:00:00 1.4 10 Sudeste 23 Sudeste 0.5 840 0.3 82
2020-04-01 07:00:00 1.4 12 Este 21 Este 0.8 839.7 -0.1 82
2020-04-01 06:00:00 1.3 8 Sudeste 21 Sudeste 1 839.7 0.1 82
2020-04-01 05:00:00 1.3 8 Sudeste 22 Este 2.9 839.7 0.3 82
2020-04-01 04:00:00 1.4 13 Sudeste 26 Este 0 839.8 0.3 82
2020-04-01 03:00:00 1.6 18 Este 33 Este 1.3 839.6 0.1 82
2020-04-01 02:00:00 1.6 16 Sudeste 33 Este 2 839.4 0.8 82
2020-04-01 01:00:00 1.5 16 Sudeste 32 Sudeste 0.9 839.5 1.4 82
2020-04-01 00:00:00 1.5 18 Sudeste 37 Sudeste 0.1 839.5 1.8 82
2020-03-31 23:00:00 1.9 24 Este 40 Sudeste 1.7 838.6 1 82
2020-03-31 22:00:00 1.7 21 Este 48 Sudeste 5.1 838.1 1 82
2020-03-31 21:00:00 1.5 15 Este 33 Este 2.4 837.7 0.6 82
2020-03-31 20:00:00 1.2 13 Sudeste 37 Este 2.3 837.6 1.1 82
2020-03-31 19:00:00 0.8 16 Sudeste 26 Sudeste 0 837.1 1.2 82
2020-03-31 18:00:00 0.7 14 Este 25 Sudeste 0 837.1 1 82
2020-03-31 17:00:00 0 18 Sudeste 27 Sudeste 1.2 836.5 0.7 82
2020-03-31 16:00:00 -0.4 0 Calma -- -- 3.7 835.9 0.3 82
2020-03-31 15:00:00 -0.5 0 Calma -- -- 2.9 836.1 0.3 82
2020-03-31 14:00:00 -0.6 0 Calma -- -- 2.3 835.8 0.6 82
2020-03-31 13:00:00 -1.4 0 Calma -- -- 3.4 835.6 0.4 81
2020-03-31 12:00:00 -2 0 Calma -- -- 3 835.8 0.8 81
2020-03-31 11:00:00 -2 0 Calma -- -- 2 835.2 0.6 81
2020-03-31 10:00:00 -2.3 0 Calma -- -- 1.7 835.2 0.4 81
2020-03-31 09:00:00 -2.5 0 Calma -- -- 1.1 835 -0.4 80
2020-03-31 08:00:00 -2.9 0 Calma -- -- 1.2 834.6 -0.8 80
2020-03-31 07:00:00 -3 0 Calma -- -- 0.7 834.8 -1.1 80
2020-03-31 06:00:00 -3.3 0 Calma -- -- 0.6 835.4 -1.4 80
2020-03-31 05:00:00 -3.4 0 Calma -- -- 0.1 835.4 -2 80
2020-03-31 04:00:00 -3.9 0 Calma -- -- 0.5 835.9 -2.7 79
2020-03-31 03:00:00 -4 0 Calma -- -- 0.1 836.8 -2.6 79
2020-03-31 02:00:00 -4.4 0 Calma -- -- 0.1 837.4 -2 79
2020-03-31 01:00:00 -4.4 0 Calma -- -- 0.5 838.6 -0.9 79
2020-03-31 00:00:00 -4.1 0 Calma -- -- 1.1 839.4 -0.2 80
2020-03-30 23:00:00 -3.5 0 Calma -- -- 0.5 839.4 -0.1 80
2020-03-30 22:00:00 -3.8 0 Calma 5 Oeste 0.4 839.5 -0.6 80
2020-03-30 21:00:00 -3.7 5 Oeste 13 Noroeste 0.4 839.6 -0.6 80
2020-03-30 20:00:00 -3.4 9 Oeste 17 Oeste 0.5 839.5 -0.9 80
2020-03-30 19:00:00 -3.3 14 Oeste 28 Oeste 0.1 840.1 -0.9 80
2020-03-30 18:00:00 -3 16 Oeste 29 Oeste 0.2 840.2 -1.3 80
2020-03-30 17:00:00 -2.8 15 Oeste 24 Oeste 0.5 840.4 -1.5 80
2020-03-30 16:00:00 -3.1 18 Oeste 31 Oeste 0.1 841 -1.3 80
2020-03-30 15:00:00 -3 21 Oeste 39 Oeste 0 841.5 -1.2 80
2020-03-30 14:00:00 -3.3 24 Oeste 37 Oeste 0 841.9 -1 80
2020-03-30 13:00:00 -3.8 20 Oeste 39 Noroeste 0 842.3 -0.4 80
2020-03-30 12:00:00 -3.8 28 Oeste 43 Oeste 0 842.7 0 80
2020-03-30 11:00:00 -3.2 25 Noroeste 58 Noroeste 0 842.9 0.3 81
2020-03-30 10:00:00 -3.4 31 Noroeste 48 Oeste 0 842.7 0.3 81
2020-03-30 09:00:00 -3.1 25 Oeste 52 Oeste 0 842.7 0 81
2020-03-30 08:00:00 -2.4 28 Oeste 46 Oeste 0 842.6 -0.7 81
2020-03-30 07:00:00 -2.1 31 Oeste 52 Oeste 0 842.4 -1.3 82
2020-03-30 06:00:00 -1.7 34 Oeste 50 Oeste 0 842.7 -1.8 82
2020-03-30 05:00:00 -1.1 27 Noroeste 37 Oeste 0 843.3 -1.6 83
2020-03-30 04:00:00 -0.1 23 Noroeste 32 Noroeste 0 843.7 -1.5 81
2020-03-30 03:00:00 0.3 19 Noroeste 27 Noroeste 0 844.5 -1 77
2020-03-30 02:00:00 0.7 21 Noroeste 31 Noroeste 0 844.9 -0.8 72
2020-03-30 01:00:00 1.8 17 Noroeste 23 Oeste 0 845.2 -0.5 60
2020-03-30 00:00:00 3.3 17 Noroeste 28 Noroeste 0 845.5 -0.2 47
2020-03-29 23:00:00 4.9 15 Oeste 25 Oeste 0 845.7 0 40
2020-03-29 22:00:00 5.3 16 Noroeste 28 Noroeste 0 845.7 -0.2 37
2020-03-29 21:00:00 6.5 15 Noroeste 30 Noroeste 0 845.7 -0.2 36
2020-03-29 20:00:00 7.7 17 Noroeste 26 Noroeste 0 845.7 -0.5 35
2020-03-29 19:00:00 9 14 Noroeste 35 Oeste 0 845.9 -0.8 32
2020-03-29 18:00:00 11 15 Oeste 30 Oeste 0 845.9 -1.4 29
2020-03-29 17:00:00 10.2 15 Noroeste 33 Noroeste 0 846.2 -1.2 32
2020-03-29 16:00:00 9.5 15 Noroeste 31 Oeste 0 846.7 -1.2 32
2020-03-29 15:00:00 9.3 21 Noroeste 32 Noroeste 0 847.3 -0.9 32
2020-03-29 14:00:00 9.3 15 Oeste 27 Oeste 0 847.4 -0.9 34
2020-03-29 13:00:00 8.6 17 Noroeste 30 Noroeste 0 847.9 -0.2 38
2020-03-29 12:00:00 7.2 16 Oeste 25 Oeste 0 848.2 0.3 40
2020-03-29 11:00:00 5.8 15 Noroeste 22 Oeste 0 848.3 0.5 43
2020-03-29 10:00:00 3.7 15 Noroeste 21 Noroeste 0 848.1 0.5 49
2020-03-29 09:00:00 1.9 13 Noroeste 17 Noroeste 0 847.9 0.2 52
2020-03-29 08:00:00 1.1 12 Noroeste 15 Noroeste 0 847.8 -0.1 50
2020-03-29 07:00:00 1.8 11 Noroeste 13 Noroeste 0 847.6 -0.5 46
2020-03-29 06:00:00 3 8 Noroeste 9 Oeste 0 847.7 -0.7 42
2020-03-29 05:00:00 3.3 7 Oeste 8 Oeste 0 847.9 -0.7 41
2020-03-29 03:00:00 3.6 8 Oeste 9 Noroeste 0 848.4 0 41
2020-03-29 01:00:00 3.8 6 Noroeste 8 Noroeste 0 848.6 0.1 40
2020-03-29 00:00:00 3.8 0 Calma -- -- 0 848.7 0.5 40
2020-03-28 23:00:00 4 0 Calma 9 Sudeste 0 848.4 0.7 38
2020-03-28 22:00:00 4.3 6 Sudeste 9 Sudeste 0 848.5 1.2 37
2020-03-28 21:00:00 4.1 5 Este 12 Sur 0 848.2 1.2 37
2020-03-28 20:00:00 4.4 5 Sur 12 Sudoeste 0 847.7 1 36
2020-03-28 19:00:00 5.4 6 Sudeste 15 Sudeste 0 847.3 0.8 33
2020-03-28 18:00:00 7.7 7 Sudeste 20 Sudeste 0 847 0.2 30
2020-03-28 17:00:00 7.2 13 Sudeste 25 Sudeste 0 846.7 -0.2 29
2020-03-28 16:00:00 8.2 10 Este 25 Sudeste 0 846.5 -0.4 29
2020-03-28 15:00:00 7.9 10 Sudeste 31 Este 0 846.8 -0.1 28
2020-03-28 14:00:00 7.5 12 Sudeste 30 Sudeste 0 846.9 0.2 29
2020-03-28 13:00:00 6.3 14 Sudeste 36 Sudeste 0 846.9 0.8 30
2020-03-28 12:00:00 5.7 21 Sudeste 37 Este 0 846.9 1.3 31
2020-03-28 11:00:00 4.4 17 Sudeste 39 Este 0 846.7 1.3 37
2020-03-28 10:00:00 2.9 23 Este 40 Sudeste 0 846.1 1.1 48
2020-03-28 09:00:00 1.4 22 Sudeste 34 Sudeste 0 845.6 1.1 53
2020-03-28 08:00:00 0.8 18 Este 27 Este 0 845.4 1 57
2020-03-28 07:00:00 -1.4 13 Sudeste 26 Sudeste 0 845 0.7 69
2020-03-28 06:00:00 -1.2 17 Sudeste 25 Este 0 844.5 0.2 63
2020-03-28 05:00:00 -0.7 13 Sudeste 20 Este 0 844.4 0.1 61
2020-03-28 04:00:00 -0.7 7 Este 24 Este 0 844.3 0.1 61
2020-03-28 03:00:00 -0.6 11 Este 19 Sudeste 0 844.3 0.2 64
2020-03-28 02:00:00 -1.2 7 Sudeste 10 Sudeste 0 844.3 0.4 75
2020-03-28 01:00:00 -1.6 5 Sudeste 9 Sudeste 0 844.2 0.6 75
2020-03-28 00:00:00 -1.3 4 Este 10 Este 0 844.1 1.2 73
2020-03-27 23:00:00 -1 6 Este 14 Este 0 843.9 1.5 66
2020-03-27 22:00:00 -1 6 Sudeste 14 Sudeste 0 843.6 1.6 57
2020-03-27 21:00:00 -0.2 6 Sudeste 15 Sudeste 0 842.9 1.2 53
2020-03-27 20:00:00 0.1 8 Sudeste 16 Sudeste 0 842.4 1.2 50
2020-03-27 19:00:00 1.8 9 Sudeste 19 Sudeste 0 842 1.2 45
2020-03-27 18:00:00 2.8 11 Sudeste 26 Sudeste 0 841.7 0.8 43
2020-03-27 17:00:00 3 16 Sudeste 43 Este 0 841.2 0.3 42
2020-03-27 16:00:00 2.2 24 Este 42 Sudeste 0 840.8 0.2 46
2020-03-27 15:00:00 2.8 21 Este 45 Este 0 840.9 0 48
2020-03-27 14:00:00 1.5 22 Este 45 Este 0 840.9 0.4 48
2020-03-27 13:00:00 3 22 Este 40 Este 0 840.6 0.5 36
2020-03-27 12:00:00 0.1 16 Este 28 Sudeste 0 840.9 1.3 52
2020-03-27 11:00:00 -0.4 16 Sudeste 28 Este 0 840.5 1.4 56
2020-03-27 10:00:00 -0.6 13 Este 24 Sudeste 0 840.1 1.2 61
2020-03-27 09:00:00 -3.4 18 Sudeste 30 Sudeste 0 839.6 0.8 74
2020-03-27 08:00:00 -3.5 14 Sudeste 20 Este 0 839.1 0.4 78
2020-03-27 07:00:00 -3.1 13 Este 22 Este 0 838.9 0.2 68
2020-03-27 06:00:00 -2.3 14 Sudeste 22 Sudeste 0 838.8 -0.4 58
2020-03-27 05:00:00 -2.2 11 Este 28 Este 0 838.7 -0.7 58
2020-03-27 04:00:00 -2.4 18 Este 27 Este 0 838.7 -1 60
2020-03-27 03:00:00 -1.6 15 Sudeste 23 Este 0 839.2 -0.4 60
2020-03-27 02:00:00 -0.8 2 Este 12 Este 0 839.4 -0.3 60
2020-03-27 01:00:00 -0.5 9 Oeste 12 Oeste 0 839.7 0 57
2020-03-27 00:00:00 -0.3 6 Oeste 8 Noroeste 0 839.6 -0.1 54
2020-03-26 23:00:00 -0.1 5 Oeste 8 Oeste 0 839.7 0 53
2020-03-26 22:00:00 0.4 5 Noroeste 9 Norte 0 839.7 0 50
2020-03-26 21:00:00 0.8 4 Noroeste 14 Norte 0 839.7 0.4 47
2020-03-26 20:00:00 1.4 10 Norte 26 Noroeste 0 839.7 0.5 43
2020-03-26 19:00:00 3.5 17 Noroeste 32 Noroeste 0 839.7 0.5 37
2020-03-26 18:00:00 4.4 19 Noroeste 36 Noroeste 0 839.3 -0.2 34
2020-03-26 17:00:00 5.4 21 Noroeste 41 Noroeste 0 839.2 -0.5 34
2020-03-26 16:00:00 4.9 28 Noroeste 50 Noroeste 0 839.2 -0.6 33
2020-03-26 15:00:00 4.6 33 Noroeste 57 Oeste 0 839.5 -0.6 33
2020-03-26 14:00:00 3.8 31 Noroeste 52 Noroeste 0 839.7 -0.4 33
2020-03-26 13:00:00 3.1 35 Noroeste 59 Noroeste 0 839.8 -0.3 32
2020-03-26 12:00:00 2.4 34 Noroeste 61 Noroeste 0 840.1 0 32
2020-03-26 11:00:00 2 31 Noroeste 51 Oeste 0 840.1 0.2 33
2020-03-26 10:00:00 0.4 33 Noroeste 48 Noroeste 0 840.1 0.5 31
2020-03-26 09:00:00 -0.3 32 Noroeste 48 Oeste 0 840.1 0.7 29
2020-03-26 08:00:00 -1.1 34 Noroeste 52 Oeste 0 839.9 0.6 29
2020-03-26 07:00:00 -2.4 37 Noroeste 54 Noroeste 0 839.6 -0.7 33
2020-03-26 06:00:00 -1.4 37 Noroeste 65 Noroeste 0 839.4 -1.4 32
2020-03-26 05:00:00 -1 39 Noroeste 55 Noroeste 0 839.3 -2.7 36
2020-03-26 04:00:00 -0.6 30 Noroeste 41 Noroeste 0 840.3 -2 55
2020-03-26 03:00:00 0.1 27 Noroeste 42 Noroeste 0 840.8 -1.9 57
2020-03-26 02:00:00 1 13 Oeste 22 Noroeste 0 842 -0.4 71
2020-03-26 01:00:00 1.3 17 Noroeste 25 Oeste 0 842.3 -0.7 71
2020-03-26 00:00:00 2.3 12 Oeste 32 Noroeste 0 842.7 -0.7 68
2020-03-25 23:00:00 1.5 21 Noroeste 30 Noroeste 0 842.4 -0.8 61
2020-03-25 22:00:00 3.3 21 Noroeste 29 Oeste 0 843 0.2 39
2020-03-25 21:00:00 4.6 10 Noroeste 18 Noroeste 0 843.4 0.4 36
2020-03-25 20:00:00 4.8 13 Noroeste 38 Oeste 0 843.2 0.1 38
2020-03-25 19:00:00 7.6 27 Noroeste 44 Noroeste 0 842.8 -0.7 29
2020-03-25 18:00:00 8.6 23 Noroeste 47 Noroeste 0 843 -1 26
2020-03-25 17:00:00 9.4 26 Noroeste 48 Noroeste 0 843.1 -1.6 28
2020-03-25 16:00:00 9.2 26 Noroeste 41 Noroeste 0 843.5 -1.4 29
2020-03-25 15:00:00 7.8 18 Noroeste 36 Noroeste 0 844 -1 33
2020-03-25 14:00:00 7.5 19 Noroeste 39 Noroeste 0 844.7 -0.1 35
2020-03-25 13:00:00 7.6 24 Noroeste 37 Noroeste 0 844.9 -0.2 34
2020-03-25 12:00:00 6.8 21 Noroeste 42 Noroeste 0 845 0.1 40
2020-03-25 11:00:00 5.5 23 Noroeste 36 Noroeste 0 844.8 -0.1 50
2020-03-25 10:00:00 3.3 18 Noroeste 32 Noroeste 0 845.1 0.4 74
2020-03-25 09:00:00 1.6 14 Noroeste 21 Noroeste 0 844.9 -0.2 81
2020-03-25 08:00:00 1.1 9 Noroeste 12 Oeste 0 844.9 -0.3 81
2020-03-25 07:00:00 0.5 2 Este 9 Este 0 844.7 -0.7 81
2020-03-25 06:00:00 1.2 5 Este 12 Este 0 845.1 -0.7 81
2020-03-25 05:00:00 1.1 8 Este 14 Este 0 845.2 -0.7 80
2020-03-25 04:00:00 1.3 8 Este 13 Este 0 845.4 -0.6 81
2020-03-25 03:00:00 1.3 9 Sudeste 19 Sudeste 0 845.8 -0.3 78
2020-03-25 02:00:00 1.3 11 Sudeste 21 Este 0 845.9 -0.4 74
2020-03-25 01:00:00 2.1 14 Sudeste 23 Sudeste 0 846 -0.1 64
2020-03-25 00:00:00 2.4 16 Sudeste 24 Sudeste 0 846.1 0.1 65
2020-03-24 23:00:00 2.7 17 Sudeste 27 Sudeste 0 846.3 0.6 65
2020-03-24 22:00:00 3.2 14 Sudeste 26 Sudeste 0 846.1 0.7 62
2020-03-24 21:00:00 4.2 13 Sudeste 22 Este 0 846 1.1 58
2020-03-24 20:00:00 4.8 12 Sudeste 24 Este 0 845.7 0.7 55
2020-03-24 19:00:00 5.3 13 Este 28 Este 0 845.4 0.4 51
2020-03-24 18:00:00 6.7 14 Este 32 Sudeste 0 844.9 -0.2 46
2020-03-24 17:00:00 6.2 13 Este 28 Este 0 845 -0.6 49
2020-03-24 16:00:00 6.1 14 Este 32 Este 0 845 -1 49
2020-03-24 15:00:00 6 18 Este 32 Este 0 845.1 -0.8 50
2020-03-24 14:00:00 4.9 14 Este 31 Sudeste 0 845.6 0 56
2020-03-24 13:00:00 4.9 17 Este 50 Este 0 846 0.5 56
2020-03-24 12:00:00 4.5 27 Este 46 Este 0 845.9 0.5 57
2020-03-24 11:00:00 4.2 24 Este 49 Este 0 845.6 0.6 59
2020-03-24 10:00:00 3.6 22 Este 41 Sudeste 0 845.5 0.5 65
2020-03-24 09:00:00 2.6 23 Este 44 Este 0.1 845.4 0.4 70
2020-03-24 08:00:00 2.1 24 Este 41 Este 0 845 -0.1 74
2020-03-24 07:00:00 2.2 22 Este 40 Sudeste 0 845 -0.2 74
2020-03-24 06:00:00 2 16 Este 35 Sudeste 0 845 -0.1 76
2020-03-24 05:00:00 2.3 18 Este 36 Sudeste 0 845.1 -0.5 78
2020-03-24 04:00:00 2.3 19 Este 39 Este 0 845.2 -0.5 80
2020-03-24 03:00:00 2.7 22 Este 43 Sudeste 0 845.1 -0.5 80
2020-03-24 02:00:00 2.9 16 Este 29 Este 0 845.6 0 81
2020-03-24 01:00:00 2.9 17 Este 36 Sudeste 0 845.7 0.3 81
2020-03-24 00:00:00 3.2 19 Este 38 Este 0 845.6 0.3 81
2020-03-23 23:00:00 3.3 20 Este 37 Este 0 845.6 1 81
2020-03-23 22:00:00 3.4 21 Este 43 Este 0 845.4 0.7 80
2020-03-23 21:00:00 3.1 21 Este 41 Sudeste 0 845.3 1.2 80
2020-03-23 20:00:00 2.9 25 Sudeste 37 Este 0 844.6 0.7 80
2020-03-23 19:00:00 3.5 20 Este 37 Este 0.1 844.7 0.8 79
2020-03-23 18:00:00 4.4 17 Este 40 Este 0 844.1 -0.3 70
2020-03-23 17:00:00 5.3 18 Este 35 Este 0 843.9 -1.2 71
2020-03-23 16:00:00 3.7 19 Este 35 Este 0 843.9 -1.4 80
2020-03-23 15:00:00 3.4 16 Este 34 Sudeste 0 844.4 -0.6 81
2020-03-23 14:00:00 2 12 Este 34 Sudeste 2.2 845.1 0.4 81
2020-03-23 13:00:00 2.2 17 Este 37 Este 1.8 845.3 0.6 81
2020-03-23 12:00:00 2.4 22 Este 44 Este 0 845 0.8 81
2020-03-23 11:00:00 2.5 19 Este 39 Sudeste 0 844.7 0.5 80
2020-03-23 10:00:00 2.2 19 Este 40 Este 0.1 844.7 1 81
2020-03-23 09:00:00 1.9 13 Sudeste 25 Sudeste 0 844.2 0.7 81
2020-03-23 08:00:00 1.7 13 Sudeste 25 Este 0.3 844.2 1.2 81
2020-03-23 07:00:00 1.8 12 Este 24 Sudeste 0 843.7 0.8 81
2020-03-23 06:00:00 1.8 14 Este 29 Este 0.1 843.5 0.2 81
2020-03-23 05:00:00 1.9 18 Este 35 Sudeste 0.8 843 -0.4 81
2020-03-23 04:00:00 2.2 15 Este 27 Este 0 842.9 -0.8 81
2020-03-23 03:00:00 2.2 8 Este 19 Este 0 843.3 -0.4 80
2020-03-23 02:00:00 2 10 Este 25 Sudeste 0 843.4 -0.1 81
2020-03-23 01:00:00 2.1 13 Este 24 Este 0.3 843.7 0.2 81
2020-03-23 00:00:00 2.3 6 Sudeste 25 Este 0.4 843.7 0.6 81
2020-03-22 23:00:00 2.9 15 Este 28 Este 0 843.5 1 80
2020-03-22 22:00:00 3.3 8 Este 22 Este 0 843.5 1.5 77
2020-03-22 21:00:00 3.6 6 Este 18 Este 0.1 843.1 1.5 74
2020-03-22 20:00:00 3.7 5 Este 21 Este 0 842.5 1.1 69
2020-03-22 19:00:00 3.9 7 Este 21 Este 0 842 0.7 66
2020-03-22 18:00:00 3.9 10 Este 22 Este 0 841.6 -0.1 66
2020-03-22 17:00:00 3.6 8 Este 16 Sudeste 0.1 841.4 -0.3 74
2020-03-22 16:00:00 2.3 10 Este 25 Sudeste 0.4 841.3 -0.8 81
2020-03-22 15:00:00 2.5 15 Sudeste 27 Este 0 841.7 -0.3 78
2020-03-22 14:00:00 2.8 7 Este 22 Este 0.4 841.7 -0.3 71
2020-03-22 13:00:00 3.5 10 Este 20 Este 0 842.1 0.4 66
2020-03-22 12:00:00 2.5 11 Sudeste 21 Este 0 842 0.9 73
2020-03-22 11:00:00 2.7 11 Sudeste 24 Sudeste 0 842 1.2 81
2020-03-22 10:00:00 1.9 10 Este 21 Este 0 841.7 1.1 81
2020-03-22 09:00:00 1.2 10 Este 16 Este 0 841.1 0.7 81
2020-03-22 08:00:00 0.1 6 Sudeste 9 Este 0 840.8 0.7 81
2020-03-22 07:00:00 0.4 8 Este 21 Este 0.1 840.6 0.4 81
2020-03-22 06:00:00 0.5 10 Este 20 Este 0 840.4 -0.3 81
2020-03-22 05:00:00 0.4 9 Este 15 Este 0 840.1 -0.7 81
2020-03-22 04:00:00 0.4 9 Este 19 Este 0.3 840.2 -1 81
2020-03-22 03:00:00 0.4 12 Este 19 Sudeste 0.7 840.7 -0.5 81
2020-03-22 02:00:00 0.6 10 Este 19 Sudeste 0.2 840.8 -0.5 81
2020-03-22 01:00:00 0.5 12 Este 24 Sudeste 0.3 841.2 0.1 81
2020-03-22 00:00:00 0.9 14 Este 26 Sudeste 0 841.2 0.1 81
2020-03-21 23:00:00 0.9 17 Sudeste 30 Sudeste 0 841.3 0.7 81
2020-03-21 22:00:00 1.1 17 Sudeste 28 Sudeste 0 841.1 0.8 81
2020-03-21 21:00:00 0.8 13 Este 25 Este 0 841.1 0.6 81
2020-03-21 20:00:00 0.9 14 Este 27 Este 0 840.6 0.2 81
2020-03-21 19:00:00 0.9 17 Este 28 Sudeste 0.3 840.3 -0.3 81
2020-03-21 18:00:00 0.3 8 Este 22 Sudeste 1.2 840.5 -0.1 81
2020-03-21 17:00:00 1.5 10 Este 26 Este 0.6 840.4 -0.4 81
2020-03-21 16:00:00 2.3 9 Este 26 Este 1 840.6 -0.6 81
2020-03-21 15:00:00 2.6 15 Sudeste 37 Este 1.2 840.6 -0.7 81
2020-03-21 14:00:00 2.7 21 Este 37 Sudeste 0.7 840.8 -0.4 81
2020-03-21 13:00:00 2.6 20 Este 39 Este 0.6 841.2 -0.2 81
2020-03-21 12:00:00 2.2 21 Este 43 Sudeste 1 841.3 0 81
2020-03-21 11:00:00 1.9 24 Este 44 Sudeste 1.2 841.2 0.1 81
2020-03-21 10:00:00 1.8 26 Este 48 Este 0 841.4 0.2 81
2020-03-21 09:00:00 1.9 23 Este 42 Este 0 841.3 -0.3 81
2020-03-21 08:00:00 1.7 24 Sudeste 41 Sudeste 0 841.1 -1 81
2020-03-21 07:00:00 1.6 26 Este 39 Sudeste 0.1 841.2 -1.1 81
2020-03-21 06:00:00 1.5 22 Este 36 Sudeste 0 841.6 -1.2 81
2020-03-21 05:00:00 1.2 19 Este 41 Sudeste 0 842.1 -1.2 81
2020-03-21 04:00:00 1.5 26 Este 50 Sudeste 0 842.3 -1.3 81
2020-03-21 03:00:00 2.3 26 Sudeste 42 Este 0 842.8 -1 81
2020-03-21 02:00:00 2.6 22 Sudeste 40 Sudeste 0 843.3 -0.6 81
2020-03-21 01:00:00 2.6 22 Este 39 Este 0 843.6 -0.6 81
2020-03-21 00:00:00 2.7 23 Este 37 Sudeste 0 843.8 -0.6 81
2020-03-20 23:00:00 2.8 23 Sudeste 37 Sudeste 0 843.9 -0.5 81
2020-03-20 22:00:00 3.1 23 Sudeste 36 Este 0 844.2 -0.3 81
2020-03-20 21:00:00 3.2 21 Este 39 Este 0 844.4 0.1 81
2020-03-20 20:00:00 3.2 26 Este 42 Este 0 844.4 -0.3 81
2020-03-20 19:00:00 3.3 22 Este 41 Este 0 844.5 -0.4 81
2020-03-20 18:00:00 3.3 22 Este 40 Este 0 844.3 -1 81
2020-03-20 17:00:00 3.3 22 Este 40 Este 0 844.7 -0.4 81
2020-03-20 16:00:00 3.3 21 Este 39 Este 0 844.9 -0.6 81
2020-03-20 15:00:00 3.3 20 Este 40 Este 0 845.3 -0.4 81
2020-03-20 14:00:00 2.9 24 Este 41 Sudeste 0 845.1 -0.9 81
2020-03-20 13:00:00 2.7 24 Sudeste 36 Este 0 845.5 -0.3 81
2020-03-20 12:00:00 2.3 22 Este 35 Sudeste 0.1 845.7 0.1 81
2020-03-20 11:00:00 2.4 18 Este 37 Sudeste 0 846 0.6 81
2020-03-20 10:00:00 2.1 24 Sudeste 40 Este 0.1 845.8 0.4 81
2020-03-20 09:00:00 2.3 23 Sudeste 35 Sudeste 0.2 845.6 0.4 81
2020-03-20 08:00:00 2 23 Sudeste 35 Sudeste 0.2 845.4 0 81
2020-03-20 07:00:00 2.4 21 Sudeste 36 Sudeste 0.8 845.4 -0.1 81
2020-03-20 06:00:00 2.9 22 Este 35 Este 1.5 845.2 -0.8 81
2020-03-20 05:00:00 3.2 24 Este 37 Este 0.2 845.4 -0.9 81
2020-03-20 04:00:00 3.3 24 Sudeste 39 Este 0.3 845.5 -0.9 81
2020-03-20 03:00:00 3.4 25 Este 39 Este 0 846 -0.9 81
2020-03-20 02:00:00 3.5 24 Este 41 Este 0 846.3 -0.8 81
2020-03-20 01:00:00 3.5 23 Sudeste 39 Este 0 846.4 -0.8 81
2020-03-20 00:00:00 3.6 25 Este 40 Sudeste 0 846.9 -0.3 81
2020-03-19 23:00:00 4.1 23 Sudeste 39 Sudeste 0 847.1 -0.1 80
2020-03-19 22:00:00 4.4 22 Sudeste 36 Sudeste 0 847.2 -0.1 76
2020-03-19 21:00:00 4.9 17 Sudeste 34 Este 0 847.2 0 68
2020-03-19 20:00:00 5.3 17 Sudeste 32 Sudeste 0 847.2 -0.4 60
2020-03-19 19:00:00 6.1 16 Sudeste 27 Sudeste 0 847.3 -0.6 55
2020-03-19 18:00:00 7.4 18 Sudeste 32 Este 0 847.2 -1.2 47
2020-03-19 17:00:00 8.3 19 Este 34 Este 0 847.6 -1.5 43
2020-03-19 16:00:00 8.9 19 Sudeste 36 Este 0 847.9 -1.9 42
2020-03-19 15:00:00 8.5 20 Sudeste 37 Este 0 848.4 -1.8 44
2020-03-19 14:00:00 7.4 20 Sudeste 35 Sudeste 0 849.1 -1.4 49
2020-03-19 13:00:00 6.2 21 Sudeste 36 Sudeste 0 849.8 -0.4 50
2020-03-19 12:00:00 5 22 Sudeste 33 Sudeste 0 850.2 0 53
2020-03-19 11:00:00 3.9 21 Sudeste 36 Este 0 850.5 0.4 53
2020-03-19 10:00:00 3.5 23 Este 35 Este 0 850.2 -0.2 56
2020-03-19 09:00:00 3.3 21 Este 32 Este 0 850.2 0 75
2020-03-19 08:00:00 2.9 19 Sudeste 28 Sudeste 0 850.1 -0.1 81
2020-03-19 07:00:00 3.3 17 Este 35 Este 0 850.4 -0.1 81
2020-03-19 06:00:00 3.7 20 Este 31 Este 0 850.2 -1 81
2020-03-19 05:00:00 3.9 18 Este 31 Este 0 850.2 -1.7 80
2020-03-19 04:00:00 4.2 19 Este 31 Este 0 850.5 -1.9 80
2020-03-19 03:00:00 4.6 17 Este 26 Este 0 851.2 -1.7 78
2020-03-19 02:00:00 5.2 14 Este 21 Sudeste 0 851.9 -1.3 74
2020-03-19 01:00:00 5.6 14 Este 22 Sudeste 0 852.4 -0.8 71
2020-03-19 00:00:00 6 12 Este 17 Este 0 852.9 -0.3 67
2020-03-18 23:00:00 6.3 12 Sudeste 20 Sudeste 0 853.2 -0.1 60
2020-03-18 22:00:00 7.2 14 Sudeste 20 Sudeste 0 853.2 -0.1 52
2020-03-18 21:00:00 7.7 11 Sudeste 18 Este 0 853.2 0 49
2020-03-18 20:00:00 7.7 10 Este 18 Este 0 853.3 0.1 53
2020-03-18 19:00:00 7.5 7 Sudeste 14 Este 0 853.3 -0.2 60
2020-03-18 18:00:00 8.4 8 Este 17 Este 0 853.2 -0.5 55
2020-03-18 17:00:00 9.4 8 Sudeste 22 Sudeste 0 853.2 -1 47
2020-03-18 16:00:00 10.4 13 Sudeste 25 Sudeste 0 853.5 -0.7 46
2020-03-18 15:00:00 10.2 12 Este 27 Sudeste 0 853.7 -1 49
2020-03-18 14:00:00 9.1 15 Sudeste 30 Este 0 854.2 -0.6 51
2020-03-18 13:00:00 9.5 18 Este 33 Este 0 854.2 -0.7 49
2020-03-18 12:00:00 7.5 18 Este 33 Sudeste 0 854.7 0 59
2020-03-18 11:00:00 5.9 19 Sudeste 31 Sudeste 0 854.8 0.2 63
2020-03-18 10:00:00 5.4 17 Este 25 Este 0 854.9 0.1 66
2020-03-18 09:00:00 4.6 14 Sudeste 27 Sudeste 0 854.7 0.1 68
2020-03-18 08:00:00 4 14 Sudeste 25 Sudeste 0 854.6 0.4 72
2020-03-18 07:00:00 4 15 Sudeste 26 Sudeste 0 854.8 0.5 70
2020-03-18 06:00:00 5.2 16 Sudeste 28 Sudeste 0 854.6 0.1 59
2020-03-18 05:00:00 5.2 18 Sudeste 29 Sudeste 0 854.2 -0.6 59
2020-03-18 04:00:00 5.2 15 Sudeste 26 Sudeste 0 854.3 -0.9 62
2020-03-18 03:00:00 4.6 13 Este 25 Sudeste 0 854.5 -1.2 73
2020-03-18 02:00:00 3.8 11 Sudeste 26 Este 0 854.8 -0.6 80
2020-03-18 01:00:00 4.3 15 Sudeste 26 Este 0 855.2 0 81
2020-03-18 00:00:00 4.5 15 Este 32 Sudeste 0 855.7 1.1 81
2020-03-17 23:00:00 4.7 19 Este 31 Este 0 855.4 1.2 81
2020-03-17 22:00:00 4.8 19 Este 37 Este 0 855.2 1.8 81
2020-03-17 21:00:00 4.8 23 Este 40 Sudeste 0 854.6 1.9 78
2020-03-17 20:00:00 4.9 22 Este 39 Sudeste 0 854.2 1.8 74
2020-03-17 19:00:00 4.9 18 Este 43 Este 0 853.4 1.5 76
2020-03-17 18:00:00 5.3 23 Este 44 Sudeste 0 852.7 1.1 74
2020-03-17 17:00:00 5.3 26 Este 51 Sudeste 0 852.4 1.1 82
2020-03-17 16:00:00 4.9 26 Este 53 Este 0 851.9 0.4 82
2020-03-17 15:00:00 4.4 32 Este 57 Este 0 851.6 0.4 82
2020-03-17 14:00:00 3.8 32 Este 53 Este 0 851.3 0.3 82
2020-03-17 13:00:00 2.9 31 Sudeste 57 Sudeste 0 851.5 1 82
2020-03-17 12:00:00 2.6 32 Este 56 Este 0 851.2 1.4 82
2020-03-17 11:00:00 2.1 31 Este 55 Sudeste 0 851 1.8 82
2020-03-17 10:00:00 1.6 31 Sudeste 57 Este 0 850.5 1.6 82
2020-03-17 09:00:00 1.2 25 Este 51 Sudeste 0.3 849.8 1.4 82
2020-03-17 08:00:00 0.8 28 Este 48 Sudeste 1.3 849.2 1.7 82
2020-03-17 07:00:00 -0.1 14 Este 23 Este 0.5 848.9 1.4 82
2020-03-17 06:00:00 -0.4 0 Calma -- -- 0.8 848.4 1.2 82
2020-03-17 05:00:00 -0.4 0 Calma -- -- 0.6 847.5 0.3 82
2020-03-17 04:00:00 -0.5 0 Calma -- -- 0.4 847.5 0.9 82
2020-03-17 03:00:00 -0.7 0 Calma -- -- 0 847.2 1.2 82
2020-03-17 02:00:00 -1.5 0 Calma -- -- 0.4 847.2 1.2 82
2020-03-17 01:00:00 -1.4 0 Calma -- -- 0.2 846.6 1.6 82
2020-03-17 00:00:00 -1 0 Calma -- -- 0.5 846 1.7 82
2020-03-16 23:00:00 -2 0 Calma -- -- 0.2 846 2.4 81
2020-03-16 22:00:00 -1.8 0 Calma -- -- 0.7 845 2.2 81
2020-03-16 21:00:00 -2.3 0 Calma -- -- 2 844.3 2.1 81
2020-03-16 20:00:00 -2.4 0 Calma -- -- 1.9 843.6 2 81
2020-03-16 19:00:00 -1.7 0 Calma -- -- 0.1 842.8 1.6 82
2020-03-16 18:00:00 -1.8 0 Calma -- -- 0 842.2 1.3 82
2020-03-16 17:00:00 -1.6 0 Calma -- -- 0.4 841.6 0.8 82
2020-03-16 16:00:00 -1.8 0 Calma -- -- 2.2 841.2 0.8 82
2020-03-16 15:00:00 -1.5 0 Calma -- -- 2.2 840.9 0.2 82
2020-03-16 14:00:00 -1.4 0 Calma -- -- 3.5 840.8 0.7 82
2020-03-16 13:00:00 -1.4 0 Calma -- -- 3 840.4 1 81
2020-03-16 12:00:00 -2 0 Calma -- -- 2.9 840.7 1.9 81
2020-03-16 11:00:00 -2.6 0 Calma -- -- 3.1 840.1 1.8 81
2020-03-16 10:00:00 -3.1 0 Calma -- -- 2.8 839.4 1.3 81
2020-03-16 09:00:00 -3.5 0 Calma -- -- 0.3 838.8 1.1 81
2020-03-16 08:00:00 -3.4 0 Calma -- -- 0.8 838.3 0.2 81
2020-03-16 07:00:00 -3.3 0 Calma -- -- 0.1 838.1 0 81
2020-03-16 06:00:00 -3 0 Calma -- -- 0 837.7 -1.2 81
2020-03-16 05:00:00 -3.1 0 Calma -- -- 0 838.1 -1.5 81
2020-03-16 04:00:00 -2.4 0 Calma 33 Noroeste 0 838.1 -2.1 82
2020-03-16 03:00:00 -1.5 28 Noroeste 44 Noroeste 0.1 838.9 -1.9 82
2020-03-16 02:00:00 -1.2 29 Noroeste 47 Noroeste 0.1 839.6 -1.8 83
2020-03-16 01:00:00 -0.6 26 Noroeste 43 Noroeste 0 840.2 -1.5 83
2020-03-16 00:00:00 0.4 35 Noroeste 55 Noroeste 0 840.8 -0.6 82
2020-03-15 23:00:00 4 15 Noroeste 23 Oeste 0 841.4 -0.3 80
2020-03-15 22:00:00 4.5 14 Noroeste 29 Noroeste 0 841.7 0.1 79
2020-03-15 21:00:00 5.5 14 Noroeste 38 Oeste 0 841.4 -0.5 76
2020-03-15 20:00:00 7 22 Oeste 57 Noroeste 0.2 841.7 -0.7 51
2020-03-15 19:00:00 5.7 22 Noroeste 51 Oeste 0.5 841.6 -1.3 69
2020-03-15 18:00:00 10.3 11 Sudoeste 39 Oeste 0 841.9 -1.6 39
2020-03-15 17:00:00 12 13 Sudoeste 37 Oeste 0 842.4 -2.4 39
2020-03-15 16:00:00 11.8 10 Sur 29 Sudoeste 0 842.9 -2.4 40
2020-03-15 15:00:00 13.4 9 Sudoeste 33 Sudeste 0 843.5 -2.6 36
2020-03-15 14:00:00 12.4 5 Sudeste 28 Este 0 844.8 -1.8 46
2020-03-15 13:00:00 10.3 14 Este 23 Sudeste 0 845.3 -1.4 43
2020-03-15 12:00:00 9.4 14 Este 23 Este 0 846.1 -0.5 36
2020-03-15 11:00:00 9.5 9 Este 18 Este 0 846.6 -0.2 36
2020-03-15 10:00:00 8.5 7 Este 12 Sudeste 0 846.7 0 37
2020-03-15 09:00:00 7.8 8 Este 12 Sudeste 0 846.6 -0.3 35
2020-03-15 08:00:00 6.9 9 Sudeste 14 Sudeste 0 846.8 -0.3 36
2020-03-15 07:00:00 6.5 10 Sudeste 14 Sudeste 0 846.7 -0.9 36
2020-03-15 06:00:00 6.6 12 Sudeste 17 Sudeste 0 846.9 -1.4 35
2020-03-15 05:00:00 7.2 11 Sudeste 15 Este 0 847.1 -1.5 36
2020-03-15 04:00:00 7.1 9 Este 14 Este 0 847.6 -1.3 37
2020-03-15 03:00:00 7.5 9 Este 14 Este 0 848.3 -1 37
2020-03-15 02:00:00 7.7 9 Sudeste 15 Sudeste 0 848.6 -1 37
2020-03-15 01:00:00 8.7 3 Oeste 7 Sudoeste 0 848.9 -0.8 37
2020-03-15 00:00:00 9.1 6 Sudoeste 11 Sudoeste 0 849.3 -0.5 34
2020-03-14 23:00:00 8.6 6 Sudoeste 10 Sudoeste 0 849.6 0.1 37
2020-03-14 22:00:00 8.6 6 Oeste 14 Oeste 0 849.7 0.3 27
2020-03-14 21:00:00 8.5 10 Oeste 14 Oeste 0 849.8 0.6 26
2020-03-14 20:00:00 9 12 Oeste 15 Oeste 0 849.5 0.2 27
2020-03-14 19:00:00 11 12 Oeste 21 Oeste 0 849.4 0.1 28
2020-03-14 18:00:00 12.8 12 Oeste 23 Oeste 0 849.2 -0.7 28
2020-03-14 17:00:00 13 13 Oeste 23 Oeste 0 849.3 -1.1 28
2020-03-14 16:00:00 13.6 14 Noroeste 25 Noroeste 0 849.3 -1.6 29
2020-03-14 15:00:00 12.8 12 Oeste 22 Noroeste 0 849.9 -1.2 30
2020-03-14 14:00:00 12.2 5 Oeste 14 Noroeste 0 850.4 -0.7 32
2020-03-14 13:00:00 10.9 7 Oeste 16 Noroeste 0 850.9 0.2 32
2020-03-14 12:00:00 10.8 7 Oeste 14 Noroeste 0 851.1 0.6 31
2020-03-14 11:00:00 9.8 4 Oeste 10 Noroeste 0 851.1 1 31
2020-03-14 10:00:00 6.7 5 Oeste 13 Oeste 0 850.7 0.8 38
2020-03-14 09:00:00 4.3 5 Oeste 10 Noroeste 0 850.5 0.8 43
2020-03-14 08:00:00 2.8 8 Oeste 22 Oeste 0 850.1 0.9 53
2020-03-14 07:00:00 1.6 17 Oeste 47 Noroeste 0 849.9 0.4 75
2020-03-14 06:00:00 2.5 17 Oeste 21 Noroeste 0 849.7 0 81
2020-03-14 05:00:00 3.1 13 Oeste 26 Noroeste 0 849.2 -0.9 77
2020-03-14 04:00:00 4 22 Oeste 30 Oeste 0 849.5 -0.6 81
2020-03-14 03:00:00 4.6 14 Noroeste 46 Noroeste 0 849.7 -0.4 77
2020-03-14 02:00:00 4.9 19 Noroeste 33 Noroeste 0 850.1 0 79
2020-03-14 01:00:00 4.8 23 Noroeste 35 Oeste 0 850.1 0.5 81
2020-03-14 00:00:00 4.4 18 Noroeste 27 Oeste 0 850.1 1 81
2020-03-13 23:00:00 4.7 21 Noroeste 27 Oeste 0 850.1 1.2 81
2020-03-13 22:00:00 5.4 17 Noroeste 29 Noroeste 0 849.6 1 81
2020-03-13 21:00:00 7.5 21 Noroeste 30 Oeste 0 849.1 0.9 77
2020-03-13 20:00:00 7.9 19 Oeste 31 Oeste 0 848.9 0.6 75
2020-03-13 19:00:00 8.4 19 Oeste 29 Noroeste 0 848.6 0.3 73
2020-03-13 18:00:00 9.6 16 Noroeste 28 Oeste 0 848.2 -0.2 69
2020-03-13 17:00:00 9.9 17 Noroeste 26 Oeste 0 848.3 -0.6 65
2020-03-13 16:00:00 10.1 15 Noroeste 25 Noroeste 0 848.3 -0.9 67
2020-03-13 15:00:00 10.7 9 Oeste 19 Noroeste 0 848.4 -0.8 60
2020-03-13 14:00:00 12.4 10 Noroeste 17 Noroeste 0 848.9 -0.1 56
2020-03-13 13:00:00 12.5 5 Noroeste 18 Sudeste 0 849.2 0.2 52
2020-03-13 12:00:00 13.1 0 Calma 17 Este 0 849.2 0.4 49
2020-03-13 11:00:00 12.7 9 Este 22 Este 0 849 0.2 43
2020-03-13 10:00:00 12 7 Este 15 Este 0 849 0.4 46
2020-03-13 09:00:00 8.2 0 Calma 5 Oeste 0 848.8 0.4 66
2020-03-13 08:00:00 7.3 5 Oeste 7 Oeste 0 848.8 0.3 67
2020-03-13 07:00:00 8.2 5 Oeste 7 Oeste 0 848.6 0.1 65
2020-03-13 06:00:00 8.1 6 Oeste 13 Oeste 0 848.4 -0.6 65
2020-03-13 05:00:00 8 8 Oeste 14 Oeste 0 848.5 -0.9 65
2020-03-13 04:00:00 10.3 4 Oeste 12 Oeste 0 848.5 -1.1 53
2020-03-13 03:00:00 9.1 9 Oeste 17 Noroeste 0 849 -0.9 60
2020-03-13 02:00:00 8.8 12 Noroeste 19 Noroeste 0 849.4 -0.8 56
2020-03-13 01:00:00 9.4 14 Noroeste 18 Oeste 0 849.6 -0.6 51
2020-03-13 00:00:00 10.6 15 Oeste 21 Oeste 0 849.9 -0.2 48
2020-03-12 23:00:00 9.6 15 Noroeste 20 Noroeste 0 850.2 0.3 48
2020-03-12 22:00:00 11.1 15 Noroeste 20 Noroeste 0 850.2 0.4 41
2020-03-12 21:00:00 12.3 13 Oeste 19 Oeste 0 850.1 0.3 34
2020-03-12 20:00:00 13.9 5 Noroeste 23 Sudoeste 0 849.9 0 29
2020-03-12 19:00:00 14.1 8 Sur 15 Sudoeste 0 849.8 -0.4 33
2020-03-12 18:00:00 15.6 4 Sur 15 Este 0 849.8 -0.8 33
2020-03-12 17:00:00 16.1 9 Este 20 Sudeste 0 849.9 -1.5 32
2020-03-12 16:00:00 16 12 Este 25 Sudeste 0 850.2 -2.2 33
2020-03-12 15:00:00 16.7 13 Sudeste 23 Sudeste 0 850.6 -2.1 35
2020-03-12 14:00:00 16.6 12 Este 20 Este 0 851.4 -1.3 34
2020-03-12 13:00:00 15.6 7 Este 15 Sudeste 0 852.4 -0.3 36
2020-03-12 12:00:00 15.2 7 Este 20 Este 0 852.7 0.1 38
2020-03-12 11:00:00 14 11 Este 20 Nordeste 0 852.7 0.3 40
2020-03-12 10:00:00 13.2 11 Este 19 Este 0 852.7 0.3 42
2020-03-12 09:00:00 12.4 9 Este 17 Este 0 852.6 0.2 41
2020-03-12 08:00:00 11.5 9 Sudeste 16 Este 0 852.4 -0.3 40
2020-03-12 07:00:00 11.6 10 Sudeste 20 Este 0 852.4 -0.5 40
2020-03-12 06:00:00 10.8 9 Sudeste 14 Este 0 852.4 -1.2 43
2020-03-12 05:00:00 11 9 Este 15 Este 0 852.7 -1.3 39
2020-03-12 04:00:00 12.2 11 Sudeste 14 Este 0 852.9 -1.6 36
2020-03-12 03:00:00 12.5 10 Este 12 Este 0 853.6 -1.2 35
2020-03-12 02:00:00 13.8 8 Sudeste 11 Sur 0 854 -0.9 30
2020-03-12 01:00:00 14.3 9 Sudeste 11 Sudeste 0 854.5 -0.2 32
2020-03-12 00:00:00 13.5 2 Sur 7 Noroeste 0 854.8 0.1 34
2020-03-11 23:00:00 13.6 6 Oeste 10 Noroeste 0 854.9 0.1 34
2020-03-11 22:00:00 13.5 8 Oeste 12 Oeste 0 854.7 -0.1 33
2020-03-11 21:00:00 13.2 9 Oeste 15 Oeste 0 854.7 0 35
2020-03-11 20:00:00 13.7 9 Oeste 13 Oeste 0 854.8 0.2 37
2020-03-11 19:00:00 14.1 6 Este 9 Este 0 854.8 0.2 36
2020-03-11 18:00:00 15.8 5 Sudeste 14 Sudeste 0 854.7 -0.2 33
2020-03-11 17:00:00 16.6 9 Sudeste 18 Este 0 854.6 -0.9 32
2020-03-11 16:00:00 17.8 9 Este 21 Este 0 854.6 -1.4 32
2020-03-11 15:00:00 17.8 12 Este 21 Sudeste 0 854.9 -1.4 33
2020-03-11 14:00:00 17.3 4 Este 19 Norte 0 855.5 -0.9 32
2020-03-11 13:00:00 18.3 9 Noroeste 21 Oeste 0 856 -0.1 25
2020-03-11 12:00:00 17.3 9 Noroeste 22 Oeste 0 856.3 0.6 27
2020-03-11 11:00:00 15.3 12 Noroeste 17 Noroeste 0 856.4 1.1 32
2020-03-11 10:00:00 13 12 Noroeste 21 Oeste 0 856.1 0.9 36
2020-03-11 09:00:00 10.5 16 Noroeste 22 Noroeste 0 855.7 0.8 46
2020-03-11 08:00:00 8.9 17 Noroeste 25 Noroeste 0 855.3 0.3 50
2020-03-11 07:00:00 8.8 19 Noroeste 26 Noroeste 0 855.2 -0.1 53
2020-03-11 06:00:00 8.8 22 Noroeste 27 Noroeste 0 854.9 -0.7 57
2020-03-11 05:00:00 8.5 22 Noroeste 29 Oeste 0 855 -1 57
2020-03-11 04:00:00 8.4 21 Noroeste 32 Oeste 0 855.3 -0.9 56
2020-03-11 03:00:00 9.1 24 Oeste 37 Oeste 0 855.6 -0.9 56
2020-03-11 02:00:00 9.3 25 Oeste 37 Oeste 0 856 -0.7 58
2020-03-11 01:00:00 9 26 Noroeste 36 Noroeste 0 856.2 -0.6 60
2020-03-11 00:00:00 8.4 26 Noroeste 35 Oeste 0 856.5 0 56
2020-03-10 23:00:00 9.5 25 Noroeste 35 Oeste 0 856.7 0.4 47
2020-03-10 22:00:00 10 21 Noroeste 31 Oeste 0 856.8 0.5 43
2020-03-10 21:00:00 10.2 22 Noroeste 28 Oeste 0 856.5 0.4 40
2020-03-10 20:00:00 11.1 21 Noroeste 30 Noroeste 0 856.3 0.1 36
2020-03-10 19:00:00 13.9 19 Noroeste 31 Noroeste 0 856.3 0.2 28
2020-03-10 18:00:00 14.7 19 Noroeste 39 Oeste 0 856.1 -0.5 27
2020-03-10 17:00:00 15.9 21 Noroeste 37 Noroeste 0 856.2 -0.5 24
2020-03-10 16:00:00 16.9 18 Noroeste 32 Noroeste 0 856.1 -1.3 22
2020-03-10 15:00:00 15.8 20 Oeste 35 Noroeste 0 856.6 -0.8 24
2020-03-10 14:00:00 14.4 17 Oeste 27 Oeste 0 856.7 -0.3 28
2020-03-10 13:00:00 13.8 16 Noroeste 30 Noroeste 0 857.4 0.8 30
2020-03-10 12:00:00 11.6 22 Oeste 32 Oeste 0 857.4 1.1 32
2020-03-10 11:00:00 10 18 Oeste 31 Oeste 0 857 1.1 37
2020-03-10 10:00:00 8 23 Noroeste 38 Oeste 0 856.6 1.2 38
2020-03-10 09:00:00 5.2 26 Noroeste 37 Oeste 0 856.3 1 44
2020-03-10 08:00:00 4.4 28 Noroeste 40 Oeste 0 855.9 0.7 46
2020-03-10 07:00:00 4.3 29 Oeste 40 Oeste 0 855.4 0.5 47
2020-03-10 06:00:00 3.8 27 Noroeste 37 Oeste 0 855.3 0 48
2020-03-10 05:00:00 3.9 27 Oeste 37 Oeste 0 855.2 -0.1 49
2020-03-10 04:00:00 3.1 29 Noroeste 40 Noroeste 0 854.9 -0.6 51
2020-03-10 03:00:00 3.1 30 Noroeste 40 Oeste 0 855.3 -0.3 46
2020-03-10 02:00:00 2 32 Noroeste 44 Oeste 0 855.3 -0.3 47
2020-03-10 01:00:00 3.1 33 Noroeste 45 Oeste 0 855.5 0.1 43
2020-03-10 00:00:00 3.8 28 Noroeste 48 Noroeste 0 855.6 0.6 40
2020-03-09 23:00:00 4.4 31 Oeste 50 Noroeste 0 855.6 0.8 36
2020-03-09 22:00:00 3.8 27 Oeste 50 Oeste 0 855.4 1.2 40
2020-03-09 21:00:00 3.5 30 Oeste 56 Oeste 0 855 0.9 42
2020-03-09 20:00:00 3.6 24 Noroeste 42 Noroeste 0 854.8 0.8 43
2020-03-09 19:00:00 4.8 25 Noroeste 45 Noroeste 0 854.2 0.3 37
2020-03-09 18:00:00 6 29 Noroeste 48 Noroeste 0 854.1 -0.3 36
2020-03-09 17:00:00 6.7 32 Noroeste 49 Noroeste 0 854 -0.6 35
2020-03-09 16:00:00 6.3 26 Noroeste 56 Oeste 0 853.9 -0.7 37
2020-03-09 15:00:00 6 31 Noroeste 50 Noroeste 0 854.4 -0.6 42
2020-03-09 14:00:00 5.1 32 Noroeste 52 Noroeste 0 854.6 -0.2 50
2020-03-09 13:00:00 2 32 Noroeste 52 Noroeste 0 854.6 0.6 81
2020-03-09 12:00:00 0.8 36 Noroeste 50 Noroeste 0 855 1.5 81
2020-03-09 11:00:00 0 35 Noroeste 51 Noroeste 0 854.8 1.9 81
2020-03-09 10:00:00 -0.5 32 Noroeste 53 Noroeste 0 854 2.1 81
2020-03-09 09:00:00 -0.6 38 Noroeste 58 Noroeste 0 853.5 2.1 81
2020-03-09 08:00:00 -0.7 38 Noroeste 62 Oeste 0 852.9 2 81
2020-03-09 07:00:00 -0.3 45 Noroeste 72 Noroeste 0 851.9 1.2 81
2020-03-09 06:00:00 0 53 Noroeste 87 Noroeste 0 851.4 0.4 81
2020-03-09 05:00:00 0.5 60 Noroeste 93 Noroeste 0 850.9 -0.7 81
2020-03-09 04:00:00 0.9 57 Noroeste 86 Noroeste 0 850.7 -1.3 81
2020-03-09 03:00:00 1.8 56 Noroeste 89 Noroeste 0 851 -1.7 81
2020-03-09 02:00:00 2.4 57 Noroeste 89 Noroeste 0 851.6 -1.5 81
2020-03-09 01:00:00 2.7 52 Noroeste 76 Oeste 0 852 -1.3 81
2020-03-09 00:00:00 3 45 Noroeste 67 Noroeste 0 852.7 -0.3 81
2020-03-08 23:00:00 3.2 43 Noroeste 64 Noroeste 0 853.1 -0.1 81
2020-03-08 22:00:00 3.5 39 Noroeste 60 Oeste 0 853.3 0.3 81
2020-03-08 21:00:00 3.8 38 Noroeste 57 Noroeste 0 853 0.2 80
2020-03-08 20:00:00 4.7 33 Noroeste 54 Noroeste 0 853.2 0.4 69
2020-03-08 19:00:00 4.8 30 Noroeste 49 Oeste 0 853 0.2 70
2020-03-08 18:00:00 5.9 27 Noroeste 45 Noroeste 0 852.8 -0.1 59
2020-03-08 17:00:00 6.4 26 Noroeste 55 Noroeste 0 852.8 -0.7 49
2020-03-08 16:00:00 6.7 32 Noroeste 48 Noroeste 0 852.8 -0.9 38
2020-03-08 15:00:00 7.3 25 Noroeste 48 Noroeste 0 852.9 -1 36
2020-03-08 14:00:00 7.1 24 Noroeste 40 Oeste 0 853.5 -0.4 36
2020-03-08 13:00:00 5.7 28 Noroeste 42 Oeste 0 853.7 0.4 44
2020-03-08 12:00:00 4.6 28 Noroeste 41 Oeste 0 853.9 1 50
2020-03-08 11:00:00 3.6 28 Noroeste 47 Noroeste 0 853.9 1.3 61
2020-03-08 10:00:00 1.9 31 Noroeste 45 Oeste 0 853.3 0.8 72
2020-03-08 09:00:00 1.1 30 Oeste 47 Noroeste 0 852.9 0.2 74
2020-03-08 08:00:00 0.2 27 Noroeste 41 Oeste 0 852.6 0 71
2020-03-08 07:00:00 -0.2 28 Noroeste 39 Noroeste 0 852.5 -0.6 61
2020-03-08 06:00:00 0.1 19 Oeste 25 Oeste 0 852.7 -0.8 63
2020-03-08 05:00:00 -0.7 19 Noroeste 28 Noroeste 0 852.6 -1.1 72
2020-03-08 04:00:00 -0.7 21 Noroeste 26 Oeste 0 853.1 -0.8 71
2020-03-08 03:00:00 0.4 13 Noroeste 21 Noroeste 0 853.5 -0.7 72
2020-03-08 02:00:00 0.9 17 Oeste 26 Noroeste 0 853.7 -0.8 70
2020-03-08 01:00:00 1 22 Noroeste 32 Noroeste 0 853.9 -0.3 68
2020-03-08 00:00:00 1.1 23 Noroeste 35 Oeste 0 854.2 -0.1 73